sensor_id;sensor_type;location;lat;lon;timestamp;pressure;altitude;pressure_sealevel;temperature;humidity
7200;BME280;3641;49.082;8.200;2023-06-26T00:00:59;100146.13;;;22.53;47.51
7200;BME280;3641;49.082;8.200;2023-06-26T00:03:26;100145.88;;;22.60;47.32
7200;BME280;3641;49.082;8.200;2023-06-26T00:05:54;100147.88;;;22.70;46.82
7200;BME280;3641;49.082;8.200;2023-06-26T00:08:26;100157.28;;;22.58;48.34
7200;BME280;3641;49.082;8.200;2023-06-26T00:10:52;100141.09;;;22.50;48.94
7200;BME280;3641;49.082;8.200;2023-06-26T00:13:21;100147.78;;;22.54;49.66
7200;BME280;3641;49.082;8.200;2023-06-26T00:15:48;100150.44;;;22.34;48.56
7200;BME280;3641;49.082;8.200;2023-06-26T00:18:14;100151.06;;;22.41;47.92
7200;BME280;3641;49.082;8.200;2023-06-26T00:20:40;100147.72;;;22.44;48.01
7200;BME280;3641;49.082;8.200;2023-06-26T00:23:07;100153.06;;;22.51;47.67
7200;BME280;3641;49.082;8.200;2023-06-26T00:25:34;100155.09;;;22.23;51.18
7200;BME280;3641;49.082;8.200;2023-06-26T00:28:00;100144.94;;;21.69;50.91
7200;BME280;3641;49.082;8.200;2023-06-26T00:30:28;100152.59;;;21.07;59.74
7200;BME280;3641;49.082;8.200;2023-06-26T00:32:54;100150.69;;;21.35;51.83
7200;BME280;3641;49.082;8.200;2023-06-26T00:35:21;100150.22;;;21.43;56.92
7200;BME280;3641;49.082;8.200;2023-06-26T00:37:47;100149.63;;;21.41;57.52
7200;BME280;3641;49.082;8.200;2023-06-26T00:40:14;100156.28;;;21.62;50.82
7200;BME280;3641;49.082;8.200;2023-06-26T00:42:41;100153.19;;;21.91;49.60
7200;BME280;3641;49.082;8.200;2023-06-26T00:45:08;100151.00;;;21.98;51.07
7200;BME280;3641;49.082;8.200;2023-06-26T00:47:36;100158.63;;;21.48;57.26
7200;BME280;3641;49.082;8.200;2023-06-26T00:50:04;100151.44;;;21.80;49.28
7200;BME280;3641;49.082;8.200;2023-06-26T00:52:31;100163.44;;;20.64;60.12
7200;BME280;3641;49.082;8.200;2023-06-26T00:54:58;100156.50;;;20.84;55.96
7200;BME280;3641;49.082;8.200;2023-06-26T00:57:24;100144.97;;;21.19;55.78
7200;BME280;3641;49.082;8.200;2023-06-26T00:59:51;100159.84;;;20.25;61.47
7200;BME280;3641;49.082;8.200;2023-06-26T01:02:17;100152.97;;;19.93;63.06
7200;BME280;3641;49.082;8.200;2023-06-26T01:04:47;100148.63;;;20.37;58.14
7200;BME280;3641;49.082;8.200;2023-06-26T01:07:15;100138.34;;;20.54;59.66
7200;BME280;3641;49.082;8.200;2023-06-26T01:09:44;100149.13;;;20.33;61.37
7200;BME280;3641;49.082;8.200;2023-06-26T01:12:11;100139.03;;;20.44;56.34
7200;BME280;3641;49.082;8.200;2023-06-26T01:14:38;100145.47;;;20.28;62.30
7200;BME280;3641;49.082;8.200;2023-06-26T01:17:05;100145.97;;;21.08;52.03
7200;BME280;3641;49.082;8.200;2023-06-26T01:19:33;100141.41;;;20.97;53.35
7200;BME280;3641;49.082;8.200;2023-06-26T01:22:07;100145.84;;;20.37;61.68
7200;BME280;3641;49.082;8.200;2023-06-26T01:24:44;100143.22;;;20.86;53.30
7200;BME280;3641;49.082;8.200;2023-06-26T01:27:13;100141.00;;;20.27;61.70
7200;BME280;3641;49.082;8.200;2023-06-26T01:29:40;100138.66;;;19.22;66.83
7200;BME280;3641;49.082;8.200;2023-06-26T01:32:08;100139.56;;;19.11;67.30
7200;BME280;3641;49.082;8.200;2023-06-26T01:34:35;100139.47;;;19.51;64.94
7200;BME280;3641;49.082;8.200;2023-06-26T01:37:02;100145.06;;;19.39;62.67
7200;BME280;3641;49.082;8.200;2023-06-26T01:39:29;100134.28;;;19.09;66.65
7200;BME280;3641;49.082;8.200;2023-06-26T01:41:55;100135.97;;;18.46;69.63
7200;BME280;3641;49.082;8.200;2023-06-26T01:44:26;100138.38;;;19.35;58.73
7200;BME280;3641;49.082;8.200;2023-06-26T01:46:59;100135.78;;;19.46;64.55
7200;BME280;3641;49.082;8.200;2023-06-26T01:49:33;100127.94;;;19.88;61.16
7200;BME280;3641;49.082;8.200;2023-06-26T01:52:07;100126.25;;;19.87;56.42
7200;BME280;3641;49.082;8.200;2023-06-26T01:54:39;100132.00;;;19.69;62.84
7200;BME280;3641;49.082;8.200;2023-06-26T01:57:09;100130.44;;;19.10;65.32
7200;BME280;3641;49.082;8.200;2023-06-26T01:59:38;100127.28;;;19.06;63.09
7200;BME280;3641;49.082;8.200;2023-06-26T02:02:06;100128.75;;;19.55;56.90
7200;BME280;3641;49.082;8.200;2023-06-26T02:04:33;100134.38;;;19.60;60.28
7200;BME280;3641;49.082;8.200;2023-06-26T02:07:00;100135.50;;;19.01;65.60
7200;BME280;3641;49.082;8.200;2023-06-26T02:09:26;100133.75;;;19.87;55.41
7200;BME280;3641;49.082;8.200;2023-06-26T02:11:52;100140.38;;;19.86;61.31
7200;BME280;3641;49.082;8.200;2023-06-26T02:14:19;100130.59;;;20.17;53.71
7200;BME280;3641;49.082;8.200;2023-06-26T02:16:47;100128.22;;;19.41;61.32
7200;BME280;3641;49.082;8.200;2023-06-26T02:19:13;100129.84;;;19.54;62.60
7200;BME280;3641;49.082;8.200;2023-06-26T02:21:46;100131.56;;;19.26;62.62
7200;BME280;3641;49.082;8.200;2023-06-26T02:24:13;100130.59;;;18.39;68.18
7200;BME280;3641;49.082;8.200;2023-06-26T02:26:39;100127.84;;;19.66;56.76
7200;BME280;3641;49.082;8.200;2023-06-26T02:29:06;100123.41;;;19.82;60.50
7200;BME280;3641;49.082;8.200;2023-06-26T02:31:32;100128.03;;;19.76;58.15
7200;BME280;3641;49.082;8.200;2023-06-26T02:34:00;100125.31;;;19.65;56.89
7200;BME280;3641;49.082;8.200;2023-06-26T02:36:26;100121.97;;;18.88;64.96
7200;BME280;3641;49.082;8.200;2023-06-26T02:38:53;100123.75;;;18.42;67.45
7200;BME280;3641;49.082;8.200;2023-06-26T02:41:19;100118.34;;;18.35;66.51
7200;BME280;3641;49.082;8.200;2023-06-26T02:43:46;100124.44;;;18.49;67.12
7200;BME280;3641;49.082;8.200;2023-06-26T02:46:12;100129.50;;;18.28;68.81
7200;BME280;3641;49.082;8.200;2023-06-26T02:48:39;100125.72;;;18.70;60.28
7200;BME280;3641;49.082;8.200;2023-06-26T02:51:07;100124.03;;;18.69;66.18
7200;BME280;3641;49.082;8.200;2023-06-26T02:53:34;100144.31;;;17.99;69.07
7200;BME280;3641;49.082;8.200;2023-06-26T02:56:00;100136.97;;;17.92;69.95
7200;BME280;3641;49.082;8.200;2023-06-26T02:58:27;100129.28;;;18.30;68.21
7200;BME280;3641;49.082;8.200;2023-06-26T03:00:53;100132.88;;;18.42;67.16
7200;BME280;3641;49.082;8.200;2023-06-26T03:03:21;100132.06;;;18.94;58.25
7200;BME280;3641;49.082;8.200;2023-06-26T03:05:47;100136.50;;;18.19;67.41
7200;BME280;3641;49.082;8.200;2023-06-26T03:08:15;100131.69;;;18.03;69.17
7200;BME280;3641;49.082;8.200;2023-06-26T03:10:42;100127.84;;;18.27;67.51
7200;BME280;3641;49.082;8.200;2023-06-26T03:13:08;100133.84;;;18.24;66.64
7200;BME280;3641;49.082;8.200;2023-06-26T03:15:37;100132.34;;;18.69;63.01
7200;BME280;3641;49.082;8.200;2023-06-26T03:18:04;100134.13;;;18.63;63.79
7200;BME280;3641;49.082;8.200;2023-06-26T03:20:30;100127.06;;;18.67;64.74
7200;BME280;3641;49.082;8.200;2023-06-26T03:22:57;100130.63;;;18.27;67.50
7200;BME280;3641;49.082;8.200;2023-06-26T03:25:24;100136.53;;;19.12;58.00
7200;BME280;3641;49.082;8.200;2023-06-26T03:27:51;100131.84;;;19.13;60.00
7200;BME280;3641;49.082;8.200;2023-06-26T03:30:17;100138.56;;;19.17;57.97
7200;BME280;3641;49.082;8.200;2023-06-26T03:32:44;100139.13;;;19.02;63.47
7200;BME280;3641;49.082;8.200;2023-06-26T03:35:10;100131.72;;;18.79;58.93
7200;BME280;3641;49.082;8.200;2023-06-26T03:37:37;100138.41;;;18.30;66.60
7200;BME280;3641;49.082;8.200;2023-06-26T03:40:04;100138.09;;;18.91;58.06
7200;BME280;3641;49.082;8.200;2023-06-26T03:42:32;100142.59;;;19.55;55.08
7200;BME280;3641;49.082;8.200;2023-06-26T03:44:58;100148.03;;;19.21;60.77
7200;BME280;3641;49.082;8.200;2023-06-26T03:47:25;100147.91;;;19.28;61.64
7200;BME280;3641;49.082;8.200;2023-06-26T03:49:51;100150.72;;;18.63;65.20
7200;BME280;3641;49.082;8.200;2023-06-26T03:52:18;100157.38;;;18.62;62.93
7200;BME280;3641;49.082;8.200;2023-06-26T03:54:44;100149.69;;;19.34;56.10
7200;BME280;3641;49.082;8.200;2023-06-26T03:57:11;100148.25;;;19.31;57.07
7200;BME280;3641;49.082;8.200;2023-06-26T03:59:38;100144.47;;;18.80;60.58
7200;BME280;3641;49.082;8.200;2023-06-26T04:02:05;100148.75;;;18.11;67.61
7200;BME280;3641;49.082;8.200;2023-06-26T04:04:32;100137.94;;;18.33;65.69
7200;BME280;3641;49.082;8.200;2023-06-26T04:06:58;100141.28;;;19.29;59.35
7200;BME280;3641;49.082;8.200;2023-06-26T04:09:25;100144.41;;;19.03;57.91
7200;BME280;3641;49.082;8.200;2023-06-26T04:11:51;100142.31;;;19.11;63.24
7200;BME280;3641;49.082;8.200;2023-06-26T04:14:18;100142.81;;;19.08;57.89
7200;BME280;3641;49.082;8.200;2023-06-26T04:16:46;100136.28;;;18.85;64.34
7200;BME280;3641;49.082;8.200;2023-06-26T04:19:12;100145.44;;;18.62;60.15
7200;BME280;3641;49.082;8.200;2023-06-26T04:21:39;100157.38;;;19.32;61.22
7200;BME280;3641;49.082;8.200;2023-06-26T04:24:06;100157.13;;;18.52;65.80
7200;BME280;3641;49.082;8.200;2023-06-26T04:26:32;100161.59;;;19.05;59.98
7200;BME280;3641;49.082;8.200;2023-06-26T04:28:59;100160.53;;;18.30;66.37
7200;BME280;3641;49.082;8.200;2023-06-26T04:31:25;100153.09;;;18.95;58.63
7200;BME280;3641;49.082;8.200;2023-06-26T04:36:23;100158.59;;;19.07;63.51
7200;BME280;3641;49.082;8.200;2023-06-26T04:38:53;100156.25;;;18.75;65.15
7200;BME280;3641;49.082;8.200;2023-06-26T04:41:20;100155.47;;;19.03;64.41
7200;BME280;3641;49.082;8.200;2023-06-26T04:43:47;100159.91;;;19.33;61.40
7200;BME280;3641;49.082;8.200;2023-06-26T04:46:13;100160.63;;;19.40;62.10
7200;BME280;3641;49.082;8.200;2023-06-26T04:48:40;100150.03;;;19.54;61.91
7200;BME280;3641;49.082;8.200;2023-06-26T04:51:06;100154.41;;;19.67;60.87
7200;BME280;3641;49.082;8.200;2023-06-26T04:53:34;100152.28;;;19.86;57.07
7200;BME280;3641;49.082;8.200;2023-06-26T04:56:01;100149.25;;;19.71;57.54
7200;BME280;3641;49.082;8.200;2023-06-26T04:58:27;100149.03;;;19.44;62.43
7200;BME280;3641;49.082;8.200;2023-06-26T05:00:54;100151.63;;;19.79;60.38
7200;BME280;3641;49.082;8.200;2023-06-26T05:03:21;100149.53;;;19.57;61.65
7200;BME280;3641;49.082;8.200;2023-06-26T05:05:48;100149.88;;;19.44;61.91
7200;BME280;3641;49.082;8.200;2023-06-26T05:08:16;100145.91;;;19.86;57.19
7200;BME280;3641;49.082;8.200;2023-06-26T05:10:45;100148.09;;;19.84;60.95
7200;BME280;3641;49.082;8.200;2023-06-26T05:13:12;100142.44;;;20.12;57.19
7200;BME280;3641;49.082;8.200;2023-06-26T05:15:40;100148.56;;;20.14;59.86
7200;BME280;3641;49.082;8.200;2023-06-26T05:18:06;100145.09;;;20.41;55.45
7200;BME280;3641;49.082;8.200;2023-06-26T05:20:34;100148.44;;;20.43;57.17
7200;BME280;3641;49.082;8.200;2023-06-26T05:23:01;100149.63;;;20.30;60.98
7200;BME280;3641;49.082;8.200;2023-06-26T05:25:28;100148.81;;;20.30;61.16
7200;BME280;3641;49.082;8.200;2023-06-26T05:27:57;100151.47;;;20.42;61.18
7200;BME280;3641;49.082;8.200;2023-06-26T05:30:24;100148.22;;;20.67;57.00
7200;BME280;3641;49.082;8.200;2023-06-26T05:32:52;100152.69;;;20.68;60.78
7200;BME280;3641;49.082;8.200;2023-06-26T05:35:20;100154.50;;;20.79;60.45
7200;BME280;3641;49.082;8.200;2023-06-26T05:37:48;100147.53;;;20.99;58.21
7200;BME280;3641;49.082;8.200;2023-06-26T05:40:16;100151.84;;;20.90;60.42
7200;BME280;3641;49.082;8.200;2023-06-26T05:42:43;100148.81;;;20.91;60.42
7200;BME280;3641;49.082;8.200;2023-06-26T05:45:11;100156.03;;;20.70;61.51
7200;BME280;3641;49.082;8.200;2023-06-26T05:47:37;100159.44;;;20.77;61.40
7200;BME280;3641;49.082;8.200;2023-06-26T05:50:05;100152.25;;;20.98;60.47
7200;BME280;3641;49.082;8.200;2023-06-26T05:52:32;100165.09;;;20.82;61.11
7200;BME280;3641;49.082;8.200;2023-06-26T05:54:59;100143.91;;;20.98;60.89
7200;BME280;3641;49.082;8.200;2023-06-26T05:57:27;100164.94;;;21.16;60.19
7200;BME280;3641;49.082;8.200;2023-06-26T05:59:54;100165.72;;;21.12;60.37
7200;BME280;3641;49.082;8.200;2023-06-26T06:02:22;100178.84;;;21.21;60.42
7200;BME280;3641;49.082;8.200;2023-06-26T06:04:49;100170.28;;;21.23;60.36
7200;BME280;3641;49.082;8.200;2023-06-26T06:07:15;100179.59;;;21.39;59.25
7200;BME280;3641;49.082;8.200;2023-06-26T06:09:42;100165.13;;;21.59;59.18
7200;BME280;3641;49.082;8.200;2023-06-26T06:12:09;100169.97;;;21.74;59.16
7200;BME280;3641;49.082;8.200;2023-06-26T06:14:35;100164.78;;;21.83;58.91
7200;BME280;3641;49.082;8.200;2023-06-26T06:17:02;100168.84;;;22.02;58.66
7200;BME280;3641;49.082;8.200;2023-06-26T06:19:30;100164.59;;;21.94;58.91
7200;BME280;3641;49.082;8.200;2023-06-26T06:21:56;100165.13;;;21.91;59.08
7200;BME280;3641;49.082;8.200;2023-06-26T06:24:23;100167.00;;;22.18;58.23
7200;BME280;3641;49.082;8.200;2023-06-26T06:26:49;100166.91;;;22.40;57.20
7200;BME280;3641;49.082;8.200;2023-06-26T06:29:15;100173.59;;;22.44;56.95
7200;BME280;3641;49.082;8.200;2023-06-26T06:31:44;100164.06;;;22.83;55.98
7200;BME280;3641;49.082;8.200;2023-06-26T06:34:10;100174.16;;;22.99;56.12
7200;BME280;3641;49.082;8.200;2023-06-26T06:36:39;100173.03;;;23.00;55.63
7200;BME280;3641;49.082;8.200;2023-06-26T06:39:05;100169.84;;;23.45;54.20
7200;BME280;3641;49.082;8.200;2023-06-26T06:41:32;100175.78;;;23.94;53.23
7200;BME280;3641;49.082;8.200;2023-06-26T06:43:58;100177.44;;;24.21;52.22
7200;BME280;3641;49.082;8.200;2023-06-26T06:46:25;100177.38;;;24.68;50.59
7200;BME280;3641;49.082;8.200;2023-06-26T06:48:52;100173.38;;;24.94;50.34
7200;BME280;3641;49.082;8.200;2023-06-26T06:51:19;100177.50;;;25.07;49.79
7200;BME280;3641;49.082;8.200;2023-06-26T06:53:46;100170.75;;;24.12;51.57
7200;BME280;3641;49.082;8.200;2023-06-26T06:56:13;100171.28;;;23.78;52.89
7200;BME280;3641;49.082;8.200;2023-06-26T06:58:39;100175.75;;;24.20;52.02
7200;BME280;3641;49.082;8.200;2023-06-26T07:01:07;100176.00;;;24.39;51.50
7200;BME280;3641;49.082;8.200;2023-06-26T07:03:34;100166.59;;;24.15;51.80
7200;BME280;3641;49.082;8.200;2023-06-26T07:06:01;100162.34;;;23.71;52.17
7200;BME280;3641;49.082;8.200;2023-06-26T07:08:28;100159.84;;;23.59;53.04
7200;BME280;3641;49.082;8.200;2023-06-26T07:10:56;100165.75;;;24.14;51.51
7200;BME280;3641;49.082;8.200;2023-06-26T07:13:23;100156.53;;;23.83;51.98
7200;BME280;3641;49.082;8.200;2023-06-26T07:15:49;100160.19;;;23.93;52.06
7200;BME280;3641;49.082;8.200;2023-06-26T07:18:16;100158.75;;;24.01;52.37
7200;BME280;3641;49.082;8.200;2023-06-26T07:20:43;100156.25;;;23.94;51.80
7200;BME280;3641;49.082;8.200;2023-06-26T07:23:09;100155.44;;;24.15;51.38
7200;BME280;3641;49.082;8.200;2023-06-26T07:25:36;100170.22;;;24.00;52.14
7200;BME280;3641;49.082;8.200;2023-06-26T07:28:09;100159.59;;;23.91;52.55
7200;BME280;3641;49.082;8.200;2023-06-26T07:30:36;100157.66;;;24.18;51.96
7200;BME280;3641;49.082;8.200;2023-06-26T07:33:03;100166.59;;;24.09;51.96
7200;BME280;3641;49.082;8.200;2023-06-26T07:35:29;100164.03;;;24.23;52.33
7200;BME280;3641;49.082;8.200;2023-06-26T07:37:56;100168.72;;;24.54;50.78
7200;BME280;3641;49.082;8.200;2023-06-26T07:40:22;100171.56;;;24.33;51.45
7200;BME280;3641;49.082;8.200;2023-06-26T07:42:49;100172.38;;;24.49;50.87
7200;BME280;3641;49.082;8.200;2023-06-26T07:45:17;100171.56;;;24.43;51.23
7200;BME280;3641;49.082;8.200;2023-06-26T07:47:43;100165.97;;;24.59;50.97
7200;BME280;3641;49.082;8.200;2023-06-26T07:50:10;100167.06;;;24.73;50.99
7200;BME280;3641;49.082;8.200;2023-06-26T07:52:36;100170.34;;;24.86;50.97
7200;BME280;3641;49.082;8.200;2023-06-26T07:55:04;100173.69;;;24.82;50.56
7200;BME280;3641;49.082;8.200;2023-06-26T07:57:30;100174.56;;;24.83;49.95
7200;BME280;3641;49.082;8.200;2023-06-26T07:59:57;100179.75;;;25.10;49.74
7200;BME280;3641;49.082;8.200;2023-06-26T08:02:25;100187.31;;;24.99;50.17
7200;BME280;3641;49.082;8.200;2023-06-26T08:04:51;100185.69;;;24.88;50.42
7200;BME280;3641;49.082;8.200;2023-06-26T08:07:18;100178.03;;;25.19;50.40
7200;BME280;3641;49.082;8.200;2023-06-26T08:09:44;100181.56;;;25.41;49.48
7200;BME280;3641;49.082;8.200;2023-06-26T08:12:11;100190.84;;;25.20;50.29
7200;BME280;3641;49.082;8.200;2023-06-26T08:14:37;100192.50;;;25.27;50.04
7200;BME280;3641;49.082;8.200;2023-06-26T08:17:04;100197.56;;;25.19;50.66
7200;BME280;3641;49.082;8.200;2023-06-26T08:19:32;100203.66;;;25.32;50.47
7200;BME280;3641;49.082;8.200;2023-06-26T08:21:58;100197.84;;;25.13;51.17
7200;BME280;3641;49.082;8.200;2023-06-26T08:24:25;100200.34;;;25.30;50.92
7200;BME280;3641;49.082;8.200;2023-06-26T08:26:51;100199.06;;;25.56;50.29
7200;BME280;3641;49.082;8.200;2023-06-26T08:29:17;100188.31;;;25.74;50.20
7200;BME280;3641;49.082;8.200;2023-06-26T08:31:44;100186.50;;;25.93;49.65
7200;BME280;3641;49.082;8.200;2023-06-26T08:34:10;100194.69;;;25.80;50.15
7200;BME280;3641;49.082;8.200;2023-06-26T08:36:38;100189.66;;;25.82;50.14
7200;BME280;3641;49.082;8.200;2023-06-26T08:39:05;100202.50;;;25.83;50.24
7200;BME280;3641;49.082;8.200;2023-06-26T08:41:33;100202.84;;;25.76;51.08
7200;BME280;3641;49.082;8.200;2023-06-26T08:44:01;100196.63;;;25.84;50.43
7200;BME280;3641;49.082;8.200;2023-06-26T08:46:28;100204.19;;;25.84;48.52
7200;BME280;3641;49.082;8.200;2023-06-26T08:48:55;100215.72;;;26.12;48.13
7200;BME280;3641;49.082;8.200;2023-06-26T08:51:24;100214.91;;;26.11;48.38
7200;BME280;3641;49.082;8.200;2023-06-26T08:53:56;100216.91;;;26.05;48.39
7200;BME280;3641;49.082;8.200;2023-06-26T08:56:24;100214.69;;;26.02;48.39
7200;BME280;3641;49.082;8.200;2023-06-26T08:58:51;100218.25;;;26.13;48.69
7200;BME280;3641;49.082;8.200;2023-06-26T09:01:18;100211.59;;;26.09;49.41
7200;BME280;3641;49.082;8.200;2023-06-26T09:03:45;100220.00;;;26.04;49.80
7200;BME280;3641;49.082;8.200;2023-06-26T09:06:11;100220.81;;;26.09;50.44
7200;BME280;3641;49.082;8.200;2023-06-26T09:08:38;100225.53;;;26.43;48.62
7200;BME280;3641;49.082;8.200;2023-06-26T09:11:06;100218.38;;;26.61;46.35
7200;BME280;3641;49.082;8.200;2023-06-26T09:13:33;100221.00;;;26.77;46.12
7200;BME280;3641;49.082;8.200;2023-06-26T09:16:04;100226.25;;;26.83;46.83
7200;BME280;3641;49.082;8.200;2023-06-26T09:18:33;100234.38;;;26.85;47.45
7200;BME280;3641;49.082;8.200;2023-06-26T09:21:00;100240.56;;;26.82;47.21
7200;BME280;3641;49.082;8.200;2023-06-26T09:23:27;100234.91;;;26.87;46.19
7200;BME280;3641;49.082;8.200;2023-06-26T09:25:53;100249.97;;;26.91;46.21
7200;BME280;3641;49.082;8.200;2023-06-26T09:28:22;100248.50;;;26.99;45.54
7200;BME280;3641;49.082;8.200;2023-06-26T09:30:48;100238.69;;;27.02;46.92
7200;BME280;3641;49.082;8.200;2023-06-26T09:33:18;100250.84;;;27.16;45.31
7200;BME280;3641;49.082;8.200;2023-06-26T09:35:45;100240.97;;;27.18;45.71
7200;BME280;3641;49.082;8.200;2023-06-26T09:38:11;100237.28;;;27.23;46.53
7200;BME280;3641;49.082;8.200;2023-06-26T09:40:38;100240.38;;;27.22;45.84
7200;BME280;3641;49.082;8.200;2023-06-26T09:43:05;100250.34;;;27.33;47.28
7200;BME280;3641;49.082;8.200;2023-06-26T09:45:33;100246.13;;;27.35;45.99
7200;BME280;3641;49.082;8.200;2023-06-26T09:48:01;100249.63;;;27.46;46.15
7200;BME280;3641;49.082;8.200;2023-06-26T09:50:29;100243.88;;;27.57;44.49
7200;BME280;3641;49.082;8.200;2023-06-26T09:52:59;100245.69;;;27.66;44.51
7200;BME280;3641;49.082;8.200;2023-06-26T09:55:34;100242.34;;;27.64;45.04
7200;BME280;3641;49.082;8.200;2023-06-26T09:58:02;100240.34;;;27.70;46.39
7200;BME280;3641;49.082;8.200;2023-06-26T10:00:30;100230.63;;;27.81;44.78
7200;BME280;3641;49.082;8.200;2023-06-26T10:02:58;100238.75;;;28.02;44.51
7200;BME280;3641;49.082;8.200;2023-06-26T10:05:24;100234.03;;;28.16;43.28
7200;BME280;3641;49.082;8.200;2023-06-26T10:07:52;100237.03;;;28.20;44.05
7200;BME280;3641;49.082;8.200;2023-06-26T10:10:19;100236.69;;;28.07;44.88
7200;BME280;3641;49.082;8.200;2023-06-26T10:12:48;100239.78;;;28.06;44.88
7200;BME280;3641;49.082;8.200;2023-06-26T10:15:17;100234.25;;;28.20;42.43
7200;BME280;3641;49.082;8.200;2023-06-26T10:17:46;100240.72;;;28.34;43.00
7200;BME280;3641;49.082;8.200;2023-06-26T10:20:15;100240.84;;;28.43;42.36
7200;BME280;3641;49.082;8.200;2023-06-26T10:22:45;100233.69;;;28.51;42.00
7200;BME280;3641;49.082;8.200;2023-06-26T10:25:16;100248.94;;;28.63;42.07
7200;BME280;3641;49.082;8.200;2023-06-26T10:27:45;100230.88;;;28.84;41.79
7200;BME280;3641;49.082;8.200;2023-06-26T10:30:16;100250.53;;;28.84;42.40
7200;BME280;3641;49.082;8.200;2023-06-26T10:32:45;100251.97;;;28.81;41.31
7200;BME280;3641;49.082;8.200;2023-06-26T10:35:12;100240.84;;;28.76;41.99
7200;BME280;3641;49.082;8.200;2023-06-26T10:37:44;100252.28;;;28.79;42.63
7200;BME280;3641;49.082;8.200;2023-06-26T10:40:12;100254.69;;;28.86;42.74
7200;BME280;3641;49.082;8.200;2023-06-26T10:42:39;100255.75;;;29.04;43.06
7200;BME280;3641;49.082;8.200;2023-06-26T10:45:10;100256.69;;;28.99;40.27
7200;BME280;3641;49.082;8.200;2023-06-26T10:47:40;100255.38;;;29.25;41.49
7200;BME280;3641;49.082;8.200;2023-06-26T10:50:20;100263.06;;;29.33;39.71
7200;BME280;3641;49.082;8.200;2023-06-26T10:53:13;100265.31;;;29.59;39.40
7200;BME280;3641;49.082;8.200;2023-06-26T10:55:42;100264.50;;;29.44;39.34
7200;BME280;3641;49.082;8.200;2023-06-26T10:58:27;100258.03;;;29.44;39.33
7200;BME280;3641;49.082;8.200;2023-06-26T11:01:19;100261.56;;;29.63;38.87
7200;BME280;3641;49.082;8.200;2023-06-26T11:03:48;100263.84;;;29.61;39.28
7200;BME280;3641;49.082;8.200;2023-06-26T11:06:18;100265.94;;;29.69;37.51
7200;BME280;3641;49.082;8.200;2023-06-26T11:08:48;100263.00;;;29.75;37.41
7200;BME280;3641;49.082;8.200;2023-06-26T11:11:15;100262.34;;;29.78;36.64
7200;BME280;3641;49.082;8.200;2023-06-26T11:13:42;100263.00;;;29.75;36.86
7200;BME280;3641;49.082;8.200;2023-06-26T11:16:11;100259.31;;;29.74;35.97
7200;BME280;3641;49.082;8.200;2023-06-26T11:18:38;100260.91;;;29.80;36.51
7200;BME280;3641;49.082;8.200;2023-06-26T11:21:06;100265.47;;;29.76;38.42
7200;BME280;3641;49.082;8.200;2023-06-26T11:23:35;100257.56;;;29.78;38.48
7200;BME280;3641;49.082;8.200;2023-06-26T11:26:21;100253.81;;;29.83;35.65
7200;BME280;3641;49.082;8.200;2023-06-26T11:28:49;100259.63;;;29.86;36.96
7200;BME280;3641;49.082;8.200;2023-06-26T11:31:25;100266.06;;;30.01;35.55
7200;BME280;3641;49.082;8.200;2023-06-26T11:33:53;100265.72;;;29.80;34.81
7200;BME280;3641;49.082;8.200;2023-06-26T11:36:23;100271.25;;;29.71;36.38
7200;BME280;3641;49.082;8.200;2023-06-26T11:38:52;100274.34;;;29.83;39.40
7200;BME280;3641;49.082;8.200;2023-06-26T11:41:20;100266.38;;;29.99;38.07
7200;BME280;3641;49.082;8.200;2023-06-26T11:43:47;100275.66;;;30.00;35.43
7200;BME280;3641;49.082;8.200;2023-06-26T11:46:16;100280.91;;;29.79;35.63
7200;BME280;3641;49.082;8.200;2023-06-26T11:48:42;100274.44;;;29.92;35.28
7200;BME280;3641;49.082;8.200;2023-06-26T11:51:09;100282.56;;;29.94;37.00
7200;BME280;3641;49.082;8.200;2023-06-26T11:53:39;100277.38;;;29.73;34.46
7200;BME280;3641;49.082;8.200;2023-06-26T11:56:10;100275.91;;;30.12;35.47
7200;BME280;3641;49.082;8.200;2023-06-26T12:01:36;100277.28;;;30.15;37.38
7200;BME280;3641;49.082;8.200;2023-06-26T12:04:04;100279.63;;;29.99;33.97
7200;BME280;3641;49.082;8.200;2023-06-26T12:06:35;100271.81;;;29.96;34.20
7200;BME280;3641;49.082;8.200;2023-06-26T12:09:04;100280.19;;;29.87;35.81
7200;BME280;3641;49.082;8.200;2023-06-26T12:11:32;100272.88;;;29.86;34.04
7200;BME280;3641;49.082;8.200;2023-06-26T12:13:59;100274.69;;;30.04;34.69
7200;BME280;3641;49.082;8.200;2023-06-26T12:16:27;100275.41;;;30.10;32.59
7200;BME280;3641;49.082;8.200;2023-06-26T12:18:59;100269.81;;;29.96;32.99
7200;BME280;3641;49.082;8.200;2023-06-26T12:21:44;100274.59;;;30.10;33.79
7200;BME280;3641;49.082;8.200;2023-06-26T12:24:13;100277.63;;;29.99;33.30
7200;BME280;3641;49.082;8.200;2023-06-26T12:26:41;100281.03;;;30.10;33.37
7200;BME280;3641;49.082;8.200;2023-06-26T12:29:09;100280.13;;;30.23;35.57
7200;BME280;3641;49.082;8.200;2023-06-26T12:31:39;100283.72;;;30.15;34.76
7200;BME280;3641;49.082;8.200;2023-06-26T12:34:11;100274.69;;;30.04;35.70
7200;BME280;3641;49.082;8.200;2023-06-26T12:36:42;100273.22;;;30.07;34.63
7200;BME280;3641;49.082;8.200;2023-06-26T12:39:10;100276.88;;;30.07;36.52
7200;BME280;3641;49.082;8.200;2023-06-26T12:41:44;100271.81;;;29.96;32.83
7200;BME280;3641;49.082;8.200;2023-06-26T12:44:17;100275.84;;;30.03;35.04
7200;BME280;3641;49.082;8.200;2023-06-26T12:46:46;100269.00;;;30.18;35.10
7200;BME280;3641;49.082;8.200;2023-06-26T12:49:13;100272.69;;;30.19;32.95
7200;BME280;3641;49.082;8.200;2023-06-26T12:51:40;100270.41;;;30.07;33.13
7200;BME280;3641;49.082;8.200;2023-06-26T12:54:08;100273.50;;;30.19;36.56
7200;BME280;3641;49.082;8.200;2023-06-26T12:56:34;100278.69;;;30.26;35.26
7200;BME280;3641;49.082;8.200;2023-06-26T12:59:01;100275.53;;;30.28;33.42
7200;BME280;3641;49.082;8.200;2023-06-26T13:01:27;100272.69;;;30.19;32.45
7200;BME280;3641;49.082;8.200;2023-06-26T13:03:54;100275.41;;;30.10;33.67
7200;BME280;3641;49.082;8.200;2023-06-26T13:06:22;100274.78;;;30.13;35.32
7200;BME280;3641;49.082;8.200;2023-06-26T13:08:48;100270.88;;;30.23;34.82
7200;BME280;3641;49.082;8.200;2023-06-26T13:11:15;100268.19;;;30.18;35.32
7200;BME280;3641;49.082;8.200;2023-06-26T13:13:42;100272.59;;;30.10;33.51
7200;BME280;3641;49.082;8.200;2023-06-26T13:16:09;100267.94;;;29.92;32.49
7200;BME280;3641;49.082;8.200;2023-06-26T13:18:35;100285.59;;;29.83;33.57